createdAt,value
2023-03-07T00:01:54.312Z,3.10
2023-03-07T00:04:20.846Z,4.13
2023-03-07T00:06:47.429Z,3.03
2023-03-07T00:09:13.976Z,3.07
2023-03-07T00:11:40.527Z,2.93
2023-03-07T00:14:08.253Z,3.70
2023-03-07T00:16:34.818Z,4.27
2023-03-07T00:19:01.418Z,4.00
2023-03-07T00:21:32.278Z,4.57
2023-03-07T00:23:58.843Z,3.80
2023-03-07T00:26:26.289Z,3.50
2023-03-07T00:28:53.338Z,2.97
2023-03-07T00:31:20.057Z,5.17
2023-03-07T00:33:46.678Z,4.30
2023-03-07T00:36:15.012Z,3.03
2023-03-07T00:38:42.238Z,4.37
2023-03-07T00:41:10.497Z,3.30
2023-03-07T00:43:37.372Z,3.33
2023-03-07T00:46:04.226Z,3.03
2023-03-07T00:48:34.679Z,3.30
2023-03-07T00:51:02.260Z,3.33
2023-03-07T00:53:28.905Z,3.73
2023-03-07T00:55:56.654Z,3.53
2023-03-07T00:58:23.247Z,4.00
2023-03-07T01:00:52.475Z,2.93
2023-03-07T01:03:19.460Z,2.77
2023-03-07T01:05:46.075Z,3.70
2023-03-07T01:08:12.621Z,2.87
2023-03-07T01:10:42.264Z,2.87
2023-03-07T01:13:14.777Z,2.93
2023-03-07T01:15:41.368Z,2.80
2023-03-07T01:18:08.626Z,3.30
2023-03-07T01:20:36.772Z,3.10
2023-03-07T01:23:03.450Z,2.90
2023-03-07T01:25:30.083Z,3.60
2023-03-07T01:27:56.821Z,2.57
2023-03-07T01:30:26.496Z,2.37
2023-03-07T01:32:57.171Z,2.70
2023-03-07T01:35:23.860Z,2.97
2023-03-07T01:37:51.290Z,2.73
2023-03-07T01:40:18.738Z,3.43
2023-03-07T01:42:45.544Z,2.87
2023-03-07T01:45:12.015Z,3.47
2023-03-07T01:47:39.109Z,2.90
2023-03-07T01:50:11.796Z,2.77
2023-03-07T01:52:57.588Z,3.70
2023-03-07T01:55:27.097Z,3.37
2023-03-07T01:57:54.046Z,2.80
2023-03-07T02:00:31.158Z,3.10
2023-03-07T02:03:14.270Z,2.80
2023-03-07T02:05:51.802Z,2.67
2023-03-07T02:08:19.054Z,3.20
2023-03-07T02:10:45.618Z,3.10
2023-03-07T02:13:12.294Z,2.90
2023-03-07T02:15:39.683Z,2.67
2023-03-07T02:18:06.301Z,3.07
2023-03-07T02:20:54.112Z,2.70
2023-03-07T02:23:42.546Z,2.80
2023-03-07T02:26:21.343Z,2.33
2023-03-07T02:28:49.873Z,2.70
2023-03-07T02:31:16.518Z,2.90
2023-03-07T02:33:43.254Z,3.03
2023-03-07T02:36:14.352Z,2.80
2023-03-07T02:38:42.960Z,2.90
2023-03-07T02:41:10.727Z,2.60
2023-03-07T02:43:37.275Z,2.80
2023-03-07T02:46:03.992Z,2.80
2023-03-07T02:48:30.677Z,3.30
2023-03-07T02:50:57.288Z,2.50
2023-03-07T02:53:24.195Z,2.50
2023-03-07T02:55:50.859Z,2.70
2023-03-07T02:58:17.476Z,2.47
2023-03-07T03:00:44.129Z,2.60
2023-03-07T03:03:11.929Z,3.07
2023-03-07T03:05:38.505Z,2.83
2023-03-07T03:08:05.477Z,2.80
2023-03-07T03:10:32.159Z,2.40
2023-03-07T03:12:58.705Z,2.87
2023-03-07T03:15:25.377Z,2.93
2023-03-07T03:17:53.865Z,2.50
2023-03-07T03:20:20.484Z,2.70
2023-03-07T03:22:47.088Z,2.40
2023-03-07T03:25:14.428Z,3.13
2023-03-07T03:27:41.523Z,3.10
2023-03-07T03:30:11.949Z,2.77
2023-03-07T03:32:41.197Z,2.53
2023-03-07T03:35:08.289Z,2.53
2023-03-07T03:37:34.899Z,2.67
2023-03-07T03:40:01.499Z,3.03
2023-03-07T03:42:28.014Z,2.70
2023-03-07T03:44:54.617Z,2.50
2023-03-07T03:47:21.296Z,2.67
2023-03-07T03:49:47.872Z,2.47
2023-03-07T03:52:14.502Z,2.37
2023-03-07T03:54:41.151Z,2.60
2023-03-07T03:57:07.930Z,2.70
2023-03-07T03:59:34.522Z,2.40
2023-03-07T04:02:01.214Z,2.53
2023-03-07T04:04:27.860Z,2.60
2023-03-07T04:06:54.555Z,2.80
2023-03-07T04:09:23.194Z,2.43
2023-03-07T04:11:49.820Z,2.53
2023-03-07T04:14:19.580Z,2.70
2023-03-07T04:16:47.365Z,2.40
2023-03-07T04:19:14.080Z,2.70
2023-03-07T04:21:40.969Z,2.50
2023-03-07T04:24:08.301Z,2.47
2023-03-07T04:26:35.705Z,2.57
2023-03-07T04:29:02.726Z,2.50
2023-03-07T04:31:29.437Z,2.77
2023-03-07T04:33:56.408Z,2.63
2023-03-07T04:36:23.361Z,2.70
2023-03-07T04:38:50.184Z,3.07
2023-03-07T04:41:18.843Z,3.20
2023-03-07T04:43:45.426Z,2.50
2023-03-07T04:46:13.147Z,2.50
2023-03-07T04:48:39.725Z,2.57
2023-03-07T04:51:06.376Z,2.67
2023-03-07T04:53:33.099Z,2.50
2023-03-07T04:56:00.411Z,3.83
2023-03-07T04:58:27.810Z,3.10
2023-03-07T05:00:54.540Z,2.60
2023-03-07T05:03:21.105Z,2.50
2023-03-07T05:05:47.625Z,2.70
2023-03-07T05:08:14.143Z,3.43
2023-03-07T05:10:41.818Z,2.53
2023-03-07T05:13:08.462Z,3.63
2023-03-07T05:15:35.357Z,2.50
2023-03-07T05:18:01.967Z,2.97
2023-03-07T05:20:29.713Z,2.50
2023-03-07T05:22:56.937Z,2.17
2023-03-07T05:25:23.550Z,2.50
2023-03-07T05:27:50.303Z,2.60
2023-03-07T05:30:17.270Z,2.67
2023-03-07T05:32:43.957Z,2.57
2023-03-07T05:35:11.111Z,2.30
2023-03-07T05:37:37.660Z,2.67
2023-03-07T05:40:09.193Z,4.03
2023-03-07T05:42:35.786Z,4.80
2023-03-07T05:45:02.463Z,7.77
2023-03-07T05:47:30.375Z,7.13
2023-03-07T05:49:56.915Z,8.40
2023-03-07T05:52:23.442Z,8.07
2023-03-07T05:54:51.411Z,9.17
2023-03-07T05:57:18.025Z,8.77
2023-03-07T05:59:44.580Z,8.97
2023-03-07T06:02:11.155Z,8.70
2023-03-07T06:04:37.705Z,8.83
2023-03-07T06:07:04.222Z,8.83
2023-03-07T06:09:30.755Z,9.00
2023-03-07T06:11:57.306Z,8.17
2023-03-07T06:14:24.219Z,8.33
2023-03-07T06:16:50.846Z,7.93
2023-03-07T06:19:17.448Z,9.80
2023-03-07T06:21:43.977Z,8.17
2023-03-07T06:24:10.503Z,11.60
2023-03-07T06:26:37.087Z,8.73
2023-03-07T06:29:03.696Z,8.77
2023-03-07T06:31:30.295Z,7.63
2023-03-07T06:33:57.686Z,8.97
2023-03-07T06:36:24.317Z,9.00
2023-03-07T06:38:50.860Z,7.93
2023-03-07T06:41:17.793Z,7.27
2023-03-07T06:43:44.365Z,7.10
2023-03-07T06:46:11.028Z,7.93
2023-03-07T06:48:37.784Z,6.90
2023-03-07T06:51:08.426Z,6.53
2023-03-07T06:53:35.031Z,7.47
2023-03-07T06:56:01.639Z,11.17
2023-03-07T06:58:28.194Z,8.90
2023-03-07T07:00:54.743Z,9.67
2023-03-07T07:03:21.435Z,11.50
2023-03-07T07:05:48.067Z,8.97
2023-03-07T07:08:14.619Z,9.80
2023-03-07T07:10:41.174Z,8.50
2023-03-07T07:13:07.707Z,7.83
2023-03-07T07:15:34.289Z,7.57
2023-03-07T07:18:00.813Z,8.50
2023-03-07T07:20:28.465Z,7.30
2023-03-07T07:22:55.108Z,8.43
2023-03-07T07:25:21.657Z,7.63
2023-03-07T07:27:48.194Z,7.60
2023-03-07T07:30:14.906Z,7.20
2023-03-07T07:32:41.633Z,6.93
2023-03-07T07:35:08.485Z,7.10
2023-03-07T07:37:35.119Z,6.10
2023-03-07T07:40:01.664Z,6.13
2023-03-07T07:42:29.000Z,5.73
2023-03-07T07:44:56.386Z,6.33
2023-03-07T07:47:23.820Z,6.73
2023-03-07T07:49:50.356Z,6.63
2023-03-07T07:52:16.890Z,5.30
2023-03-07T07:54:43.476Z,6.00
2023-03-07T07:57:09.972Z,5.83
2023-03-07T07:59:36.490Z,5.90
2023-03-07T08:02:03.059Z,5.00
2023-03-07T08:04:29.728Z,8.50
2023-03-07T08:06:56.283Z,5.67
2023-03-07T08:09:22.900Z,4.63
2023-03-07T08:11:49.483Z,4.47
2023-03-07T08:14:16.121Z,5.10
2023-03-07T08:16:42.648Z,4.57
2023-03-07T08:19:09.274Z,5.30
2023-03-07T08:21:35.801Z,4.33
2023-03-07T08:24:02.535Z,4.60
2023-03-07T08:26:29.181Z,4.57
2023-03-07T08:28:55.752Z,6.70
2023-03-07T08:31:23.846Z,5.23
2023-03-07T08:33:50.759Z,4.30
2023-03-07T08:36:17.360Z,4.30
2023-03-07T08:38:43.920Z,6.67
2023-03-07T08:41:10.502Z,6.03
2023-03-07T08:43:37.308Z,4.37
2023-03-07T08:46:03.961Z,6.17
2023-03-07T08:48:30.654Z,5.03
2023-03-07T08:50:57.212Z,5.03
2023-03-07T08:53:23.853Z,7.90
2023-03-07T08:55:50.436Z,4.73
2023-03-07T08:58:16.996Z,6.70
2023-03-07T09:00:43.591Z,4.87
2023-03-07T09:03:10.201Z,4.90
2023-03-07T09:05:37.788Z,4.20
2023-03-07T09:08:05.280Z,4.10
2023-03-07T09:10:31.955Z,6.77
2023-03-07T09:12:58.672Z,4.30
2023-03-07T09:15:25.711Z,4.03
2023-03-07T09:17:52.274Z,5.03
2023-03-07T09:20:18.834Z,4.07
2023-03-07T09:22:46.857Z,4.67
2023-03-07T09:25:13.520Z,4.40
2023-03-07T09:27:40.101Z,4.33
2023-03-07T09:30:07.490Z,4.20
2023-03-07T09:32:34.271Z,3.70
2023-03-07T09:35:00.865Z,4.00
2023-03-07T09:37:27.466Z,3.40
2023-03-07T09:39:53.987Z,3.90
2023-03-07T09:42:45.119Z,3.37
2023-03-07T09:45:21.593Z,5.40
2023-03-07T09:48:11.213Z,3.93
2023-03-07T09:50:57.480Z,3.67
2023-03-07T09:53:44.296Z,5.13
2023-03-07T09:56:21.814Z,6.83
2023-03-07T09:58:53.695Z,3.60
2023-03-07T10:01:21.825Z,4.20
2023-03-07T10:03:59.804Z,5.43
2023-03-07T10:06:40.406Z,4.03
2023-03-07T10:09:10.253Z,4.30
2023-03-07T10:11:52.109Z,4.70
2023-03-07T10:14:52.854Z,5.10
2023-03-07T10:17:20.261Z,4.07
2023-03-07T10:19:49.951Z,4.97
2023-03-07T10:22:20.605Z,3.80
2023-03-07T10:24:49.833Z,4.30
2023-03-07T10:27:16.493Z,3.90
2023-03-07T10:29:50.927Z,3.77
2023-03-07T10:32:34.923Z,3.47
2023-03-07T10:35:04.975Z,3.83
2023-03-07T10:37:55.526Z,3.83
2023-03-07T10:40:24.495Z,3.90
2023-03-07T10:42:51.178Z,3.77
2023-03-07T10:45:17.758Z,3.70
2023-03-07T10:47:44.370Z,4.07
2023-03-07T10:50:34.376Z,3.60
2023-03-07T10:53:01.914Z,3.63
2023-03-07T10:55:39.882Z,3.90
2023-03-07T10:58:23.465Z,7.87
2023-03-07T11:01:03.008Z,4.33
2023-03-07T11:03:51.398Z,4.13
2023-03-07T11:06:25.607Z,4.00
2023-03-07T11:08:52.231Z,3.10
2023-03-07T11:11:26.377Z,3.53
2023-03-07T11:14:09.099Z,3.63
2023-03-07T11:16:54.652Z,3.13
2023-03-07T11:19:32.077Z,6.50
2023-03-07T11:21:59.166Z,4.00
2023-03-07T11:24:36.276Z,3.77
2023-03-07T11:27:03.001Z,5.37
2023-03-07T11:29:29.674Z,4.70
2023-03-07T11:32:05.893Z,11.07
2023-03-07T11:34:47.776Z,6.93
2023-03-07T11:37:23.616Z,7.23
2023-03-07T11:40:28.459Z,4.80
2023-03-07T11:43:16.647Z,5.30
2023-03-07T11:45:54.058Z,5.00
2023-03-07T11:48:58.422Z,4.13
2023-03-07T11:51:39.350Z,6.23
2023-03-07T11:54:30.033Z,4.17
2023-03-07T11:57:00.512Z,3.30
2023-03-07T11:59:45.765Z,3.47
2023-03-07T12:02:40.000Z,5.50
2023-03-07T12:05:11.960Z,7.90
2023-03-07T12:07:48.084Z,6.17
2023-03-07T12:10:40.921Z,4.37
2023-03-07T12:13:39.788Z,5.07
2023-03-07T12:16:12.360Z,3.97
2023-03-07T12:18:58.175Z,3.60
2023-03-07T12:21:42.659Z,5.23
2023-03-07T12:24:19.528Z,4.40
2023-03-07T12:26:59.772Z,5.20
2023-03-07T12:29:44.635Z,3.80
2023-03-07T12:32:23.578Z,3.13
2023-03-07T12:35:00.662Z,3.00
2023-03-07T12:37:34.452Z,5.57
2023-03-07T12:40:25.145Z,4.43
2023-03-07T12:43:01.310Z,3.23
2023-03-07T12:45:28.747Z,5.53
2023-03-07T12:47:55.511Z,5.10
2023-03-07T12:51:00.003Z,3.83
2023-03-07T12:53:38.221Z,4.07
2023-03-07T12:56:04.785Z,4.17
2023-03-07T12:58:47.373Z,3.90
2023-03-07T13:01:15.470Z,4.00
2023-03-07T13:03:46.346Z,3.63
2023-03-07T13:06:18.705Z,3.67
2023-03-07T13:08:47.886Z,3.97
2023-03-07T13:11:22.718Z,5.00
2023-03-07T13:13:51.473Z,4.97
2023-03-07T13:16:38.273Z,3.20
2023-03-07T13:19:44.021Z,5.67
2023-03-07T13:22:16.698Z,4.03
2023-03-07T13:24:44.242Z,5.10
2023-03-07T13:27:15.693Z,6.63
2023-03-07T13:30:10.355Z,7.50
2023-03-07T13:32:52.107Z,3.83
2023-03-07T13:35:24.623Z,3.73
2023-03-07T13:37:55.438Z,4.63
2023-03-07T13:40:22.630Z,5.00
2023-03-07T13:42:49.321Z,3.53
2023-03-07T13:45:37.850Z,6.30
2023-03-07T13:48:05.078Z,3.63
2023-03-07T13:50:34.652Z,4.60
2023-03-07T13:53:30.398Z,3.73
2023-03-07T13:56:01.227Z,4.83
2023-03-07T13:58:29.695Z,3.57
2023-03-07T14:00:59.241Z,4.80
2023-03-07T14:03:46.026Z,3.97
2023-03-07T14:06:20.772Z,3.87
2023-03-07T14:08:47.710Z,4.43
2023-03-07T14:11:25.699Z,4.17
2023-03-07T14:14:15.780Z,3.30
2023-03-07T14:16:50.801Z,5.03
2023-03-07T14:19:58.555Z,4.20
2023-03-07T14:22:49.307Z,3.80
2023-03-07T14:25:18.840Z,2.90
2023-03-07T14:27:54.361Z,4.80
2023-03-07T14:30:21.795Z,3.70
2023-03-07T14:32:48.461Z,3.17
2023-03-07T14:35:15.633Z,2.73
2023-03-07T14:37:42.889Z,3.50
2023-03-07T14:40:14.182Z,4.40
2023-03-07T14:43:02.492Z,3.77
2023-03-07T14:45:49.816Z,3.67
2023-03-07T14:48:41.309Z,3.23
2023-03-07T14:51:16.530Z,3.87
2023-03-07T14:53:43.174Z,4.70
2023-03-07T14:56:09.787Z,4.40
2023-03-07T14:58:46.054Z,3.37
2023-03-07T15:01:15.949Z,3.57
2023-03-07T15:03:52.818Z,3.70
2023-03-07T15:06:23.989Z,5.40
2023-03-07T15:08:52.260Z,3.90
2023-03-07T15:11:27.961Z,4.80
2023-03-07T15:14:08.481Z,6.07
2023-03-07T15:16:43.350Z,3.57
2023-03-07T15:19:25.654Z,3.97
2023-03-07T15:22:02.513Z,4.40
2023-03-07T15:24:39.103Z,3.90
2023-03-07T15:27:07.900Z,3.97
2023-03-07T15:29:34.436Z,4.17
2023-03-07T15:32:08.382Z,3.23
2023-03-07T15:34:36.926Z,4.07
2023-03-07T15:37:23.246Z,3.20
2023-03-07T15:40:08.262Z,3.87
2023-03-07T15:43:20.043Z,3.97
2023-03-07T15:45:59.946Z,3.47
2023-03-07T15:48:32.560Z,3.33
2023-03-07T15:51:00.403Z,5.87
2023-03-07T15:53:31.188Z,8.27
2023-03-07T15:55:59.507Z,8.03
2023-03-07T15:58:27.088Z,5.97
2023-03-07T16:01:25.373Z,5.37
2023-03-07T16:04:03.590Z,4.93
2023-03-07T16:06:43.519Z,4.70
2023-03-07T16:09:14.730Z,6.00
2023-03-07T16:11:41.805Z,8.00
2023-03-07T16:14:29.154Z,4.13
2023-03-07T16:16:57.755Z,4.40
2023-03-07T16:19:24.422Z,4.30
2023-03-07T16:21:51.092Z,4.60
2023-03-07T16:24:17.695Z,5.80
2023-03-07T16:26:44.340Z,5.53
2023-03-07T16:29:14.935Z,4.23
2023-03-07T16:31:41.593Z,6.07
2023-03-07T16:34:18.875Z,3.90
2023-03-07T16:36:47.297Z,6.50
2023-03-07T16:39:14.132Z,4.33
2023-03-07T16:41:45.996Z,4.27
2023-03-07T16:44:16.954Z,3.40
2023-03-07T16:46:44.860Z,4.20
2023-03-07T16:49:15.615Z,4.03
2023-03-07T16:51:42.143Z,3.50
2023-03-07T16:54:08.676Z,3.50
2023-03-07T16:56:37.321Z,3.63
2023-03-07T16:59:04.019Z,3.80
2023-03-07T17:01:30.623Z,4.47
2023-03-07T17:03:57.192Z,5.10
2023-03-07T17:06:37.151Z,3.50
2023-03-07T17:09:05.754Z,3.97
2023-03-07T17:11:32.401Z,3.83
2023-03-07T17:13:59.841Z,3.97
2023-03-07T17:16:27.207Z,3.60
2023-03-07T17:18:53.725Z,3.90
2023-03-07T17:21:21.143Z,3.90
2023-03-07T17:23:49.235Z,5.90
2023-03-07T17:26:32.842Z,4.30
2023-03-07T17:29:02.185Z,3.20
2023-03-07T17:31:28.824Z,3.60
2023-03-07T17:33:55.366Z,2.90
2023-03-07T17:36:21.897Z,3.90
2023-03-07T17:38:48.542Z,3.87
2023-03-07T17:41:15.077Z,3.33
2023-03-07T17:43:41.625Z,3.47
2023-03-07T17:46:09.323Z,3.53
2023-03-07T17:48:35.898Z,3.93
2023-03-07T17:51:08.108Z,3.33
2023-03-07T17:53:35.648Z,3.40
2023-03-07T17:56:09.594Z,3.47
2023-03-07T17:58:37.666Z,3.33
2023-03-07T18:01:11.276Z,4.80
2023-03-07T18:03:38.314Z,3.53
2023-03-07T18:06:05.404Z,3.00
2023-03-07T18:08:32.036Z,3.57
2023-03-07T18:11:06.214Z,3.50
2023-03-07T18:13:32.834Z,3.37
2023-03-07T18:15:59.566Z,3.33
2023-03-07T18:18:26.217Z,4.57
2023-03-07T18:20:57.455Z,3.33
2023-03-07T18:23:23.993Z,4.20
2023-03-07T18:26:00.889Z,3.90
2023-03-07T18:28:27.715Z,4.20
2023-03-07T18:30:58.198Z,3.83
2023-03-07T18:33:25.220Z,3.93
2023-03-07T18:35:51.920Z,3.90
2023-03-07T18:38:18.506Z,4.37
2023-03-07T18:40:46.131Z,3.57
2023-03-07T18:43:14.364Z,3.70
2023-03-07T18:45:44.356Z,4.23
2023-03-07T18:48:11.029Z,3.77
2023-03-07T18:50:37.844Z,3.83
2023-03-07T18:53:04.722Z,5.30
2023-03-07T18:55:33.206Z,4.07
2023-03-07T18:57:59.867Z,4.00
2023-03-07T19:00:27.159Z,3.93
2023-03-07T19:02:53.777Z,3.80
2023-03-07T19:05:20.412Z,4.83
2023-03-07T19:07:46.941Z,4.90
2023-03-07T19:10:13.473Z,3.80
2023-03-07T19:12:39.963Z,3.93
2023-03-07T19:15:07.052Z,4.47
2023-03-07T19:17:38.194Z,4.47
2023-03-07T19:20:05.117Z,3.40
2023-03-07T19:22:31.700Z,5.97
2023-03-07T19:24:58.239Z,6.17
2023-03-07T19:27:24.836Z,4.30
2023-03-07T19:29:51.433Z,4.30
2023-03-07T19:32:18.761Z,4.07
2023-03-07T19:34:48.713Z,3.90
2023-03-07T19:37:15.271Z,4.60
2023-03-07T19:39:41.878Z,4.37
2023-03-07T19:42:08.477Z,3.93
2023-03-07T19:44:35.097Z,4.33
2023-03-07T19:47:01.683Z,4.10
2023-03-07T19:49:28.380Z,4.20
2023-03-07T19:51:54.946Z,3.90
2023-03-07T19:54:22.567Z,3.97
2023-03-07T19:56:49.195Z,4.10
2023-03-07T19:59:15.840Z,4.10
2023-03-07T20:01:42.561Z,4.10
2023-03-07T20:04:13.519Z,4.57
2023-03-07T20:06:42.183Z,4.37
2023-03-07T20:09:09.522Z,4.73
2023-03-07T20:11:36.230Z,4.77
2023-03-07T20:14:04.911Z,4.60
2023-03-07T20:16:31.963Z,5.10
2023-03-07T20:19:00.980Z,3.83
2023-03-07T20:21:28.496Z,4.30
2023-03-07T20:23:55.715Z,4.30
2023-03-07T20:26:23.903Z,4.50
2023-03-07T20:28:51.168Z,5.10
2023-03-07T20:31:18.060Z,4.47
2023-03-07T20:33:48.051Z,4.40
2023-03-07T20:36:22.484Z,4.80
2023-03-07T20:38:50.405Z,4.73
2023-03-07T20:41:18.723Z,4.27
2023-03-07T20:43:45.256Z,4.80
2023-03-07T20:46:13.210Z,3.97
2023-03-07T20:48:40.272Z,4.00
2023-03-07T20:51:16.052Z,4.73
2023-03-07T20:53:42.810Z,5.60
2023-03-07T20:56:09.491Z,4.27
2023-03-07T20:58:36.173Z,4.93
2023-03-07T21:01:02.793Z,4.13
2023-03-07T21:03:29.631Z,4.53
2023-03-07T21:05:57.041Z,4.50
2023-03-07T21:08:23.679Z,4.90
2023-03-07T21:11:09.264Z,4.20
2023-03-07T21:13:37.692Z,4.17
2023-03-07T21:16:06.641Z,4.37
2023-03-07T21:18:33.354Z,5.13
2023-03-07T21:21:02.921Z,4.80
2023-03-07T21:23:30.381Z,4.23
2023-03-07T21:26:04.895Z,4.30
2023-03-07T21:28:31.887Z,4.20
2023-03-07T21:31:00.430Z,4.20
2023-03-07T21:33:27.072Z,4.50
2023-03-07T21:35:53.704Z,4.80
2023-03-07T21:38:20.306Z,4.27
2023-03-07T21:40:46.949Z,4.50
2023-03-07T21:43:13.554Z,4.10
2023-03-07T21:45:40.191Z,4.43
2023-03-07T21:48:07.479Z,4.50
2023-03-07T21:50:34.376Z,4.50
2023-03-07T21:53:00.988Z,3.90
2023-03-07T21:55:27.519Z,4.97
2023-03-07T21:57:54.182Z,4.10
2023-03-07T22:00:21.127Z,4.33
2023-03-07T22:02:47.766Z,3.97
2023-03-07T22:05:14.375Z,4.43
2023-03-07T22:07:40.933Z,4.53
2023-03-07T22:10:08.002Z,4.03
2023-03-07T22:12:34.586Z,4.00
2023-03-07T22:15:01.159Z,3.93
2023-03-07T22:17:27.759Z,3.93
2023-03-07T22:19:54.334Z,4.13
2023-03-07T22:22:20.941Z,4.17
2023-03-07T22:24:50.382Z,4.20
2023-03-07T22:27:17.107Z,3.93
2023-03-07T22:29:43.724Z,3.57
2023-03-07T22:32:10.363Z,3.77
2023-03-07T22:34:37.324Z,3.90
2023-03-07T22:37:03.970Z,4.00
2023-03-07T22:39:30.576Z,4.30
2023-03-07T22:41:57.173Z,3.90
2023-03-07T22:44:23.705Z,3.70
2023-03-07T22:46:50.781Z,3.60
2023-03-07T22:49:18.769Z,4.13
2023-03-07T22:51:45.397Z,3.17
2023-03-07T22:54:12.003Z,3.83
2023-03-07T22:56:41.745Z,3.77
2023-03-07T22:59:09.078Z,4.10
2023-03-07T23:01:35.606Z,3.80
2023-03-07T23:04:02.456Z,3.93
2023-03-07T23:06:30.063Z,4.60
2023-03-07T23:08:57.199Z,3.90
2023-03-07T23:11:24.278Z,3.37
2023-03-07T23:13:50.864Z,3.90
2023-03-07T23:16:19.139Z,3.87
2023-03-07T23:18:46.088Z,3.90
2023-03-07T23:21:14.698Z,3.60
2023-03-07T23:23:41.328Z,3.50
2023-03-07T23:26:08.050Z,3.87
2023-03-07T23:28:34.714Z,3.60
2023-03-07T23:31:01.389Z,3.90
2023-03-07T23:33:27.993Z,4.00
2023-03-07T23:35:54.891Z,4.70
2023-03-07T23:38:21.562Z,4.10
2023-03-07T23:40:48.171Z,3.90
2023-03-07T23:43:17.292Z,3.50
2023-03-07T23:45:43.876Z,4.20
2023-03-07T23:48:12.711Z,3.90
2023-03-07T23:50:39.386Z,3.60
2023-03-07T23:53:05.948Z,4.07
2023-03-07T23:55:32.527Z,3.57
2023-03-07T23:57:59.076Z,3.50
